Time;durP1;ratioP1;P1;durP2;ratioP2;P2;SDS_P1;SDS_P2;PMS_P1;PMS_P2;Temp;Humidity;BMP_temperature;BMP_pressure;BME280_temperature;BME280_humidity;BME280_pressure;Samples;Min_cycle;Max_cycle;Signal;HPM_P1;HPM_P2
2020/12/06 00:00:09;;;;;;;28.73;16.17;;;;;;;-1.59;81.15;101103.97;1744830;82;21577;-61
2020/12/06 00:02:36;;;;;;;37.30;21.65;;;;;;;-1.61;81.29;101103.31;1734116;82;21161;-61
2020/12/06 00:05:07;;;;;;;34.65;18.75;;;;;;;-1.62;81.31;101097.63;1731387;82;21173;-61
2020/12/06 00:07:36;;;;;;;29.37;17.42;;;;;;;-1.63;81.20;101104.48;1718223;82;21713;-61
2020/12/06 00:10:06;;;;;;;33.48;16.20;;;;;;;-1.69;81.25;101110.44;1744760;82;22367;-61
2020/12/06 00:12:36;;;;;;;26.60;15.68;;;;;;;-1.74;81.02;101109.59;1729076;82;21137;-62
2020/12/06 00:15:06;;;;;;;28.23;16.15;;;;;;;-1.79;80.92;101110.56;1739332;82;21145;-62
2020/12/06 00:17:34;;;;;;;26.23;14.75;;;;;;;-1.87;80.73;101110.50;1736397;82;21677;-62
2020/12/06 00:20:03;;;;;;;27.40;15.28;;;;;;;-1.92;80.64;101111.50;1726486;82;21279;-62
2020/12/06 00:22:31;;;;;;;26.30;16.10;;;;;;;-2.00;80.54;101110.10;1710376;82;21154;-62
2020/12/06 00:24:58;;;;;;;27.17;15.18;;;;;;;-2.08;80.36;101097.55;1714157;82;21153;-61
2020/12/06 00:27:25;;;;;;;31.87;17.77;;;;;;;-2.18;80.17;101106.16;1746663;82;21169;-62
2020/12/06 00:29:53;;;;;;;29.02;16.75;;;;;;;-2.20;80.08;101104.16;1746641;82;21149;-61
2020/12/06 00:32:20;;;;;;;27.35;15.18;;;;;;;-2.27;80.00;101108.44;1729248;82;21157;-62
2020/12/06 00:34:48;;;;;;;24.05;15.13;;;;;;;-2.35;79.73;101096.86;1669410;82;21122;-61
2020/12/06 00:37:16;;;;;;;32.00;15.25;;;;;;;-2.42;79.67;101105.14;1694894;83;21185;-62
2020/12/06 00:39:44;;;;;;;27.40;15.45;;;;;;;-2.51;79.57;101105.06;1746451;82;21149;-62
2020/12/06 00:42:11;;;;;;;26.70;15.32;;;;;;;-2.58;79.49;101111.16;1690701;83;21177;-61
2020/12/06 00:44:38;;;;;;;27.02;14.18;;;;;;;-2.64;78.86;101096.63;1705243;82;21272;-62
2020/12/06 00:47:06;;;;;;;23.35;14.10;;;;;;;-2.70;78.79;101097.75;1711189;82;21168;-61
2020/12/06 00:49:33;;;;;;;30.32;16.52;;;;;;;-2.75;78.54;101093.36;1714140;82;21161;-61
2020/12/06 00:52:02;;;;;;;26.23;14.07;;;;;;;-2.80;78.49;101099.14;1713915;82;21161;-62
2020/12/06 00:54:30;;;;;;;26.05;13.60;;;;;;;-2.88;78.55;101099.57;1719360;82;21153;-62
2020/12/06 00:56:59;;;;;;;25.88;14.43;;;;;;;-2.89;78.48;101102.73;1699437;83;21137;-61
2020/12/06 00:59:26;;;;;;;24.72;12.82;;;;;;;-2.98;78.28;101096.99;1679504;83;21142;-61
2020/12/06 01:01:53;;;;;;;25.95;15.15;;;;;;;-2.98;78.22;101098.33;1721529;82;21149;-61
2020/12/06 01:04:21;;;;;;;26.40;13.85;;;;;;;-3.06;78.25;101100.41;1731317;82;21179;-62
2020/12/06 01:06:49;;;;;;;20.77;11.73;;;;;;;-3.13;78.23;101103.81;1741896;81;21153;-62
2020/12/06 01:09:16;;;;;;;24.30;11.88;;;;;;;-3.15;78.23;101099.12;1746855;81;21318;-61
2020/12/06 01:11:49;;;;;;;25.45;13.32;;;;;;;-3.19;78.10;101101.25;1719860;82;21148;-62
2020/12/06 01:14:16;;;;;;;24.75;14.15;;;;;;;-3.24;78.19;101114.68;1719842;82;21425;-61
2020/12/06 01:16:43;;;;;;;23.67;12.98;;;;;;;-3.27;78.17;101105.17;1719914;82;21263;-62
2020/12/06 01:19:11;;;;;;;24.05;13.62;;;;;;;-3.26;78.01;101106.02;1713003;82;21554;-62
2020/12/06 01:21:38;;;;;;;24.25;12.85;;;;;;;-3.31;77.99;101109.61;1668198;83;21148;-61
2020/12/06 01:24:06;;;;;;;22.65;11.75;;;;;;;-3.40;78.00;101101.20;1690920;82;21193;-62
2020/12/06 01:26:33;;;;;;;24.77;12.63;;;;;;;-3.39;77.98;101108.17;1719674;82;21146;-62
2020/12/06 01:29:01;;;;;;;25.10;11.97;;;;;;;-3.43;78.02;101108.96;1744898;82;21173;-61
2020/12/06 01:31:28;;;;;;;26.15;12.78;;;;;;;-3.46;78.00;101117.73;1740685;82;21286;-61
2020/12/06 01:33:55;;;;;;;19.40;11.33;;;;;;;-3.53;78.08;101123.66;1743788;82;21145;-62
2020/12/06 01:36:23;;;;;;;25.90;12.80;;;;;;;-3.57;78.02;101124.94;1746760;82;21141;-62
2020/12/06 01:38:51;;;;;;;22.10;12.15;;;;;;;-3.56;78.04;101117.31;1694665;82;21130;-62
2020/12/06 01:41:19;;;;;;;23.98;12.40;;;;;;;-3.54;77.75;101119.80;1734123;82;21157;-62
2020/12/06 01:43:54;;;;;;;21.45;11.43;;;;;;;-3.55;77.60;101111.01;1726290;82;21129;-61
2020/12/06 01:46:23;;;;;;;23.67;11.88;;;;;;;-3.58;77.54;101116.59;1719291;83;21177;-61
2020/12/06 01:48:52;;;;;;;22.62;12.40;;;;;;;-3.63;77.51;101120.22;1741102;81;21705;-61
2020/12/06 01:51:21;;;;;;;22.70;11.63;;;;;;;-3.69;77.48;101123.47;1736868;82;21158;-61
2020/12/06 01:53:49;;;;;;;24.35;11.80;;;;;;;-3.69;77.47;101119.48;1740129;81;21291;-61
2020/12/06 01:56:17;;;;;;;23.27;11.35;;;;;;;-3.77;77.36;101122.02;1712856;83;21189;-62
2020/12/06 01:58:45;;;;;;;23.15;12.07;;;;;;;-3.76;77.40;101130.36;1687988;84;21122;-61
2020/12/06 02:01:12;;;;;;;21.73;11.78;;;;;;;-3.80;77.37;101120.14;1730440;82;21190;-61
2020/12/06 02:03:41;;;;;;;22.50;12.05;;;;;;;-3.84;77.25;101131.57;1724453;82;21515;-62
2020/12/06 02:06:09;;;;;;;23.77;12.00;;;;;;;-3.84;77.19;101125.41;1710245;82;21114;-61
2020/12/06 02:08:36;;;;;;;20.05;11.18;;;;;;;-3.86;77.02;101130.86;1730561;82;21169;-61
2020/12/06 02:11:04;;;;;;;23.75;12.03;;;;;;;-3.90;76.77;101129.98;1726502;82;21153;-61
2020/12/06 02:13:33;;;;;;;23.32;11.60;;;;;;;-3.90;76.71;101134.83;1727682;82;21181;-61
2020/12/06 02:16:00;;;;;;;21.93;11.70;;;;;;;-3.93;76.59;101131.61;1701096;83;21429;-61
2020/12/06 02:18:27;;;;;;;24.23;11.25;;;;;;;-3.97;76.67;101132.39;1696057;82;21304;-61
2020/12/06 02:20:59;;;;;;;21.37;11.18;;;;;;;-3.99;76.64;101133.50;1709650;82;21617;-61
2020/12/06 02:23:26;;;;;;;18.30;10.75;;;;;;;-4.07;76.71;101127.56;1729274;82;21606;-61
2020/12/06 02:25:54;;;;;;;18.55;10.25;;;;;;;-4.07;76.51;101119.09;1718014;82;21578;-61
2020/12/06 02:28:21;;;;;;;22.87;10.88;;;;;;;-4.09;76.47;101122.89;1712853;83;21177;-61
2020/12/06 02:30:48;;;;;;;20.60;11.08;;;;;;;-4.15;76.62;101119.48;1709486;84;21209;-62
2020/12/06 02:33:16;;;;;;;19.85;10.30;;;;;;;-4.22;76.67;101111.73;1693388;82;21284;-61
2020/12/06 02:35:44;;;;;;;21.48;11.73;;;;;;;-4.24;76.82;101121.17;1713434;82;21315;-61
2020/12/06 02:38:11;;;;;;;20.37;11.08;;;;;;;-4.22;76.75;101124.55;1716503;82;21149;-61
2020/12/06 02:40:40;;;;;;;23.67;11.38;;;;;;;-4.24;76.64;101123.83;1738795;82;21158;-61
2020/12/06 02:43:07;;;;;;;23.18;11.60;;;;;;;-4.29;76.74;101118.13;1714694;82;21288;-61
2020/12/06 02:45:36;;;;;;;20.35;10.20;;;;;;;-4.28;76.74;101116.27;1707995;83;21319;-61
2020/12/06 02:48:06;;;;;;;20.70;11.38;;;;;;;-4.34;76.83;101123.02;1705200;84;21162;-61
2020/12/06 02:50:34;;;;;;;19.48;10.35;;;;;;;-4.35;76.78;101130.63;1709324;83;21200;-62
2020/12/06 02:53:01;;;;;;;23.10;11.68;;;;;;;-4.39;76.78;101129.23;1728849;81;21161;-61
2020/12/06 02:55:29;;;;;;;20.02;10.40;;;;;;;-4.40;76.86;101132.90;1675198;82;21164;-61
2020/12/06 02:57:56;;;;;;;20.75;10.35;;;;;;;-4.48;76.92;101135.41;1738704;82;21122;-61
2020/12/06 03:00:24;;;;;;;20.60;10.05;;;;;;;-4.49;76.82;101132.40;1736683;82;21181;-61
2020/12/06 03:02:52;;;;;;;22.58;10.98;;;;;;;-4.52;76.94;101132.69;1728161;82;21122;-61
2020/12/06 03:05:20;;;;;;;21.73;10.70;;;;;;;-4.52;76.92;101137.52;1741255;82;21177;-61
2020/12/06 03:07:47;;;;;;;16.32;9.33;;;;;;;-4.54;76.89;101139.48;1718087;82;21166;-61
2020/12/06 03:10:15;;;;;;;16.95;9.28;;;;;;;-4.57;76.80;101138.41;1738808;82;21142;-61
2020/12/06 03:12:42;;;;;;;19.42;9.78;;;;;;;-4.56;76.85;101156.53;1730051;82;21191;-61
2020/12/06 03:15:10;;;;;;;18.82;10.58;;;;;;;-4.61;76.97;101150.33;1649033;86;21200;-61
2020/12/06 03:17:37;;;;;;;21.00;9.93;;;;;;;-4.60;76.99;101159.95;1709303;84;21178;-62
2020/12/06 03:20:05;;;;;;;19.80;10.08;;;;;;;-4.60;76.87;101152.47;1637753;87;21615;-61
2020/12/06 03:22:32;;;;;;;18.52;9.93;;;;;;;-4.65;76.84;101155.57;1722627;82;21145;-61
2020/12/06 03:25:01;;;;;;;21.35;10.30;;;;;;;-4.68;76.99;101151.87;1711020;82;21198;-61
2020/12/06 03:27:28;;;;;;;18.40;9.68;;;;;;;-4.70;77.01;101157.80;1710659;82;21270;-61
2020/12/06 03:29:56;;;;;;;22.87;9.85;;;;;;;-4.66;76.94;101165.84;1736426;82;21173;-61
2020/12/06 03:32:25;;;;;;;20.02;9.75;;;;;;;-4.73;76.94;101158.08;1668681;84;21593;-61
2020/12/06 03:34:52;;;;;;;19.80;9.63;;;;;;;-4.76;77.12;101165.48;1638662;86;21215;-61
2020/12/06 03:37:20;;;;;;;17.45;9.15;;;;;;;-4.76;77.09;101161.02;1738159;82;21138;-61
2020/12/06 03:39:47;;;;;;;18.65;9.00;;;;;;;-4.79;77.17;101162.63;1738308;82;21170;-61
2020/12/06 03:42:15;;;;;;;17.60;9.45;;;;;;;-4.78;77.19;101162.95;1736047;82;21284;-61
2020/12/06 03:44:43;;;;;;;18.27;9.25;;;;;;;-4.79;77.05;101166.61;1717651;82;21167;-61
2020/12/06 03:47:11;;;;;;;19.92;9.30;;;;;;;-4.79;77.01;101173.25;1738407;82;21182;-62
2020/12/06 03:49:39;;;;;;;17.70;9.03;;;;;;;-4.77;76.90;101171.28;1732726;82;21204;-61
2020/12/06 03:52:06;;;;;;;19.07;9.83;;;;;;;-4.79;76.72;101161.78;1720172;82;21172;-61
2020/12/06 03:54:34;;;;;;;15.68;9.00;;;;;;;-4.92;76.67;101151.41;1724959;82;21171;-61
2020/12/06 03:57:02;;;;;;;16.45;7.97;;;;;;;-4.83;76.67;101173.66;1744947;82;21145;-61
2020/12/06 03:59:30;;;;;;;18.77;9.78;;;;;;;-4.85;76.58;101170.31;1750949;81;21313;-61
2020/12/06 04:01:58;;;;;;;25.43;10.32;;;;;;;-4.85;76.41;101179.09;1672559;83;21335;-61
2020/12/06 04:04:25;;;;;;;19.77;9.70;;;;;;;-4.90;76.40;101177.84;1737471;82;21180;-61
2020/12/06 04:06:53;;;;;;;20.45;9.05;;;;;;;-4.97;76.26;101168.27;1740095;82;21145;-61
2020/12/06 04:09:20;;;;;;;17.70;8.00;;;;;;;-4.99;76.48;101164.08;1747065;82;21173;-61
2020/12/06 04:11:48;;;;;;;19.23;9.00;;;;;;;-5.03;76.33;101174.12;1725383;82;21146;-61
2020/12/06 04:14:15;;;;;;;20.50;9.15;;;;;;;-5.03;76.18;101176.27;1716276;82;21226;-61
2020/12/06 04:16:43;;;;;;;16.67;8.38;;;;;;;-5.07;76.26;101173.56;1701858;83;21147;-61
2020/12/06 04:19:10;;;;;;;16.90;9.10;;;;;;;-5.10;76.02;101168.50;1729335;82;21183;-61
2020/12/06 04:21:38;;;;;;;17.05;7.87;;;;;;;-5.06;76.02;101173.89;1668413;82;21176;-61
2020/12/06 04:24:05;;;;;;;13.30;6.80;;;;;;;-5.12;75.86;101170.95;1690577;83;21192;-60
2020/12/06 04:26:33;;;;;;;15.88;7.92;;;;;;;-5.11;75.88;101177.46;1744761;82;21153;-61
2020/12/06 04:29:00;;;;;;;17.37;8.70;;;;;;;-5.15;75.97;101171.22;1750323;82;21166;-61
2020/12/06 04:31:28;;;;;;;17.52;8.80;;;;;;;-5.20;76.01;101166.80;1708577;83;21692;-61
2020/12/06 04:33:56;;;;;;;19.50;8.28;;;;;;;-5.18;76.01;101173.67;1722969;83;21177;-61
2020/12/06 04:36:23;;;;;;;16.87;8.70;;;;;;;-5.21;75.99;101181.07;1688156;82;21149;-61
2020/12/06 04:38:51;;;;;;;18.02;8.35;;;;;;;-5.22;75.87;101170.09;1724843;82;21524;-61
2020/12/06 04:41:18;;;;;;;14.58;7.28;;;;;;;-5.27;75.96;101166.50;1716783;83;21185;-61
2020/12/06 04:43:46;;;;;;;16.57;8.00;;;;;;;-5.32;75.88;101163.91;1723873;82;21157;-61
2020/12/06 04:46:13;;;;;;;15.50;7.67;;;;;;;-5.31;75.95;101163.77;1725859;82;21165;-61
2020/12/06 04:49:20;;;;;;;15.25;7.45;;;;;;;-5.33;75.93;101172.84;1747650;82;21182;-61
2020/12/06 04:51:47;;;;;;;19.23;8.10;;;;;;;-5.34;75.86;101169.83;1750044;81;21184;-61
2020/12/06 04:54:14;;;;;;;14.78;8.43;;;;;;;-5.42;75.88;101173.67;1695484;84;21238;-61
2020/12/06 04:56:42;;;;;;;15.40;7.83;;;;;;;-5.43;75.97;101171.98;1698933;83;21136;-61
2020/12/06 04:59:10;;;;;;;17.30;7.20;;;;;;;-5.47;75.92;101170.08;1705557;84;21286;-61
2020/12/06 05:01:38;;;;;;;14.13;7.25;;;;;;;-5.52;75.76;101172.28;1695557;84;21157;-60
2020/12/06 05:04:16;;;;;;;16.70;8.75;;;;;;;-5.60;75.70;101174.27;1695482;84;21176;-61
2020/12/06 05:06:44;;;;;;;19.67;8.38;;;;;;;-5.56;75.76;101177.02;1695335;84;21193;-60
2020/12/06 05:09:13;;;;;;;17.45;7.53;;;;;;;-5.54;75.70;101183.05;1695815;83;21196;-61
2020/12/06 05:11:43;;;;;;;18.20;7.70;;;;;;;-5.61;75.69;101180.58;1694195;84;21136;-61
2020/12/06 05:14:10;;;;;;;12.85;6.53;;;;;;;-5.58;75.72;101181.63;1692507;84;21348;-61
2020/12/06 05:16:39;;;;;;;14.60;7.10;;;;;;;-5.61;75.49;101177.92;1717287;82;21182;-61
2020/12/06 05:19:10;;;;;;;12.00;6.80;;;;;;;-5.65;75.71;101178.31;1741636;82;21300;-61
2020/12/06 05:21:40;;;;;;;16.12;7.28;;;;;;;-5.58;75.54;101186.09;1737232;82;21300;-61
2020/12/06 05:24:07;;;;;;;16.85;7.65;;;;;;;-5.65;75.62;101184.94;1731086;82;21735;-61
2020/12/06 05:26:35;;;;;;;16.65;7.78;;;;;;;-5.62;75.62;101184.19;1737675;82;21165;-61
2020/12/06 05:29:03;;;;;;;15.03;7.53;;;;;;;-5.59;75.55;101177.77;1735876;82;21724;-60
2020/12/06 05:31:31;;;;;;;15.32;8.15;;;;;;;-5.58;75.36;101184.77;1727804;82;21153;-60
2020/12/06 05:33:58;;;;;;;14.43;7.00;;;;;;;-5.60;75.41;101190.70;1740012;82;21689;-61
2020/12/06 05:36:25;;;;;;;16.30;7.28;;;;;;;-5.60;75.37;101182.74;1676428;84;21177;-61
2020/12/06 05:38:53;;;;;;;14.05;7.17;;;;;;;-5.66;75.45;101187.23;1712410;82;21316;-61
2020/12/06 05:41:20;;;;;;;14.50;7.20;;;;;;;-5.61;75.35;101194.32;1716789;82;21585;-61
2020/12/06 05:43:48;;;;;;;13.43;6.92;;;;;;;-5.64;75.37;101186.15;1687432;82;21291;-61
2020/12/06 05:46:16;;;;;;;14.68;7.47;;;;;;;-5.67;75.41;101193.02;1721813;82;21703;-60
2020/12/06 05:48:45;;;;;;;13.48;7.05;;;;;;;-5.65;75.11;101195.07;1726594;82;21528;-61
2020/12/06 05:51:14;;;;;;;16.48;7.33;;;;;;;-5.65;75.16;101201.70;1710943;82;21144;-59
2020/12/06 05:53:42;;;;;;;16.55;7.70;;;;;;;-5.68;75.07;101206.43;1697373;84;21541;-59
2020/12/06 05:56:16;;;;;;;15.65;7.60;;;;;;;-5.68;75.09;101211.73;1726035;82;21303;-59
2020/12/06 05:58:45;;;;;;;15.95;7.35;;;;;;;-5.65;75.00;101208.81;1727877;82;21146;-59
2020/12/06 06:01:13;;;;;;;14.63;6.97;;;;;;;-5.64;75.07;101219.31;1726777;82;21307;-59
2020/12/06 06:03:43;;;;;;;15.53;8.18;;;;;;;-5.66;75.14;101207.13;1725191;82;21157;-59
2020/12/06 06:06:25;;;;;;;12.82;6.62;;;;;;;-5.67;75.17;101217.41;1726637;82;21225;-59
2020/12/06 06:08:54;;;;;;;20.02;7.20;;;;;;;-5.69;75.12;101206.91;1728175;82;21149;-60
2020/12/06 06:11:29;;;;;;;14.23;7.28;;;;;;;-5.61;75.16;101226.16;1727810;82;21146;-59
2020/12/06 06:14:03;;;;;;;15.23;7.10;;;;;;;-5.62;75.08;101223.98;1670986;84;21154;-59
2020/12/06 06:16:32;;;;;;;16.57;8.20;;;;;;;-5.62;75.24;101230.62;1730021;82;21178;-59
2020/12/06 06:19:03;;;;;;;15.45;7.47;;;;;;;-5.62;75.14;101225.31;1731395;82;21272;-59
2020/12/06 06:21:39;;;;;;;20.27;8.23;;;;;;;-5.59;75.23;101229.50;1741876;82;21296;-60
2020/12/06 06:24:13;;;;;;;16.27;8.13;;;;;;;-5.59;74.97;101226.85;1719546;82;21309;-60
2020/12/06 06:26:45;;;;;;;15.93;7.60;;;;;;;-5.58;74.91;101233.37;1739547;82;21150;-60
2020/12/06 06:29:13;;;;;;;13.95;7.00;;;;;;;-5.56;74.58;101230.08;1732380;82;21315;-60
2020/12/06 06:31:44;;;;;;;14.87;8.00;;;;;;;-5.55;74.24;101240.21;1691620;84;21728;-59
2020/12/06 06:34:11;;;;;;;15.28;6.97;;;;;;;-5.56;74.18;101238.04;1665350;84;21314;-62
2020/12/06 06:36:38;;;;;;;17.90;7.30;;;;;;;-5.56;74.24;101236.71;1694541;83;21156;-60
2020/12/06 06:39:06;;;;;;;18.45;7.92;;;;;;;-5.58;73.86;101231.19;1695352;84;21588;-60
2020/12/06 06:41:35;;;;;;;15.50;7.58;;;;;;;-5.55;74.13;101221.16;1694360;84;21199;-59
2020/12/06 06:44:03;;;;;;;16.40;7.15;;;;;;;-5.52;74.09;101228.00;1667678;86;21612;-60
2020/12/06 06:46:33;;;;;;;16.62;7.58;;;;;;;-5.50;74.02;101229.21;1683875;84;21600;-60
2020/12/06 06:49:11;;;;;;;130.63;50.17;;;;;;;-5.44;73.70;101224.69;1709348;83;21286;-60
2020/12/06 06:51:38;;;;;;;187.62;64.92;;;;;;;-5.38;73.56;101227.65;1679622;84;21170;-60
2020/12/06 06:54:08;;;;;;;172.13;76.92;;;;;;;-5.22;73.49;101236.45;1680384;83;21604;-60
2020/12/06 06:56:48;;;;;;;50.48;26.27;;;;;;;-5.13;73.10;101236.97;1713429;82;21189;-60
2020/12/06 06:59:37;;;;;;;20.08;10.68;;;;;;;-5.02;72.06;101227.57;1709185;84;21609;-60
2020/12/06 07:02:06;;;;;;;17.52;8.88;;;;;;;-4.92;71.51;101227.62;1735323;82;21138;-58
2020/12/06 07:04:34;;;;;;;18.30;9.08;;;;;;;-4.77;71.49;101236.38;1738434;82;21220;-60
2020/12/06 07:07:01;;;;;;;15.80;7.15;;;;;;;-4.64;70.94;101233.48;1698069;83;21151;-59
2020/12/06 07:09:31;;;;;;;86.78;34.60;;;;;;;-4.56;70.54;101233.12;1737445;82;21162;-59
2020/12/06 07:12:00;;;;;;;167.13;67.60;;;;;;;-4.38;70.24;101239.07;1726191;82;21292;-59
2020/12/06 07:14:28;;;;;;;62.23;28.20;;;;;;;-4.30;69.65;101235.23;1719894;82;21165;-59
2020/12/06 07:16:58;;;;;;;72.65;35.85;;;;;;;-4.23;69.12;101244.33;1719543;82;21296;-60
2020/12/06 07:19:25;;;;;;;30.77;16.97;;;;;;;-4.14;68.59;101244.80;1727460;82;21713;-60
2020/12/06 07:21:53;;;;;;;29.60;18.73;;;;;;;-4.15;68.52;101238.67;1720485;82;21184;-60
2020/12/06 07:24:20;;;;;;;16.95;10.60;;;;;;;-4.08;68.78;101242.94;1724098;82;21303;-61
2020/12/06 07:26:48;;;;;;;26.23;9.98;;;;;;;-3.94;68.89;101245.16;1723740;82;21130;-59
2020/12/06 07:29:15;;;;;;;18.48;9.15;;;;;;;-3.84;68.45;101243.81;1736335;82;21174;-60
2020/12/06 07:31:44;;;;;;;19.70;8.73;;;;;;;-3.65;68.37;101241.13;1728950;82;21145;-60
2020/12/06 07:34:11;;;;;;;20.00;8.40;;;;;;;-3.62;67.50;101232.36;1649468;86;21605;-59
2020/12/06 07:36:39;;;;;;;16.25;8.63;;;;;;;-3.54;66.48;101240.92;1720370;82;21153;-60
2020/12/06 07:39:16;;;;;;;14.65;8.08;;;;;;;-3.53;66.20;101228.81;1726843;82;21165;-59
2020/12/06 07:41:47;;;;;;;;;;;;;;;-3.44;66.93;101241.77;1716244;82;21137;-60
2020/12/06 07:44:14;;;;;;;15.70;7.80;;;;;;;-3.40;66.25;101236.47;1726625;81;20164;-60
2020/12/06 07:46:41;;;;;;;16.25;7.25;;;;;;;-3.38;65.75;101245.66;1647630;86;21318;-60
2020/12/06 07:49:09;;;;;;;17.25;8.55;;;;;;;-3.37;65.88;101248.67;1709434;82;21721;-60
2020/12/06 07:51:38;;;;;;;18.37;8.40;;;;;;;-3.22;66.42;101251.19;1671464;85;21586;-60
2020/12/06 07:54:05;;;;;;;15.85;8.75;;;;;;;-3.12;65.95;101246.16;1681076;84;21200;-60
2020/12/06 07:56:32;;;;;;;15.18;7.50;;;;;;;-3.11;64.88;101241.68;1681403;84;21167;-59
2020/12/06 07:59:21;;;;;;;15.93;8.15;;;;;;;-3.08;64.46;101246.71;1675165;84;21322;-59
2020/12/06 08:01:49;;;;;;;12.85;7.33;;;;;;;-3.02;64.54;101250.14;1734737;82;21137;-61
2020/12/06 08:04:22;;;;;;;19.42;8.13;;;;;;;-3.05;63.97;101245.11;1746776;82;21575;-60
2020/12/06 08:06:51;;;;;;;17.37;8.30;;;;;;;-3.10;64.13;101254.87;1718455;82;21161;-61
2020/12/06 08:09:21;;;;;;;25.55;9.88;;;;;;;-2.98;64.87;101260.85;1678673;84;21138;-60
2020/12/06 08:11:50;;;;;;;16.87;8.83;;;;;;;-2.79;65.04;101263.40;1683145;84;21205;-60
2020/12/06 08:14:20;;;;;;;15.50;8.78;;;;;;;-2.76;63.86;101267.09;1660333;85;21197;-63
2020/12/06 08:16:58;;;;;;;23.60;11.53;;;;;;;-2.70;63.70;101265.19;1682139;84;21307;-62
2020/12/06 08:19:27;;;;;;;18.42;9.60;;;;;;;-2.62;63.37;101266.59;1681191;84;21210;-63
2020/12/06 08:22:02;;;;;;;20.15;8.53;;;;;;;-2.54;62.46;101253.36;1679720;84;21335;-64
2020/12/06 08:24:31;;;;;;;17.65;8.55;;;;;;;-2.57;62.46;101253.66;1688863;84;21322;-61
2020/12/06 08:27:00;;;;;;;24.25;10.98;;;;;;;-2.52;63.17;101253.22;1630479;85;21188;-62
2020/12/06 08:29:42;;;;;;;18.02;9.20;;;;;;;-2.42;63.65;101257.14;1680948;84;21578;-63
2020/12/06 08:32:11;;;;;;;18.17;9.73;;;;;;;-2.30;63.05;101254.09;1658266;84;21303;-64
2020/12/06 08:34:41;;;;;;;19.67;9.55;;;;;;;-2.15;62.74;101252.58;1696287;84;21230;-62
2020/12/06 08:37:18;;;;;;;17.17;8.08;;;;;;;-2.10;61.89;101248.13;1690331;84;21181;-63
2020/12/06 08:39:47;;;;;;;17.55;8.88;;;;;;;-2.14;61.11;101254.75;1705573;82;21167;-61
2020/12/06 08:42:19;;;;;;;19.98;8.28;;;;;;;-2.05;61.51;101246.66;1650806;85;21166;-64
2020/12/06 08:45:00;;;;;;;18.30;9.10;;;;;;;-2.09;60.86;101247.95;1719474;82;21695;-63
2020/12/06 08:47:46;;;;;;;14.20;8.40;;;;;;;-2.11;60.85;101247.77;1738316;82;21169;-62
2020/12/06 08:50:15;;;;;;;16.75;8.10;;;;;;;-2.17;60.29;101247.06;1734298;82;21162;-61
2020/12/06 08:52:42;;;;;;;20.90;9.75;;;;;;;-2.19;61.14;101233.02;1683525;84;21193;-67
2020/12/06 08:55:30;;;;;;;17.48;9.00;;;;;;;-2.16;61.49;101230.88;1695461;84;21596;-63
2020/12/06 08:57:58;;;;;;;17.57;7.70;;;;;;;-2.00;61.55;101231.52;1661705;85;21183;-62
2020/12/06 09:00:27;;;;;;;16.17;7.92;;;;;;;-1.87;60.58;101227.95;1701286;82;21152;-61
2020/12/06 09:02:59;;;;;;;18.73;8.70;;;;;;;-1.83;60.15;101231.98;1724312;83;21334;-62
2020/12/06 09:06:39;;;;;;;17.05;9.18;;;;;;;-1.73;59.68;101222.05;1796091;78;23016;-61
2020/12/06 09:09:07;;;;;;;21.33;10.95;;;;;;;-1.87;59.82;101228.44;1791158;80;21168;-61
2020/12/06 09:11:35;;;;;;;16.87;8.23;;;;;;;-1.82;60.06;101231.50;1745922;80;21271;-63
2020/12/06 09:14:03;;;;;;;18.23;8.78;;;;;;;-1.77;60.33;101232.69;1778096;80;21443;-63
2020/12/06 09:16:31;;;;;;;14.98;8.18;;;;;;;-1.74;59.43;101231.56;1777567;80;21156;-63
2020/12/06 09:18:58;;;;;;;18.82;7.75;;;;;;;-1.70;59.15;101223.06;1763424;80;21141;-64
2020/12/06 09:21:27;;;;;;;18.07;8.35;;;;;;;-1.66;59.28;101231.59;1751187;81;21290;-63
2020/12/06 09:23:54;;;;;;;16.82;7.83;;;;;;;-1.60;59.81;101225.66;1729787;81;21638;-64
2020/12/06 09:26:22;;;;;;;15.80;8.68;;;;;;;-1.55;59.49;101226.84;1737527;81;21326;-62
2020/12/06 09:28:50;;;;;;;20.57;8.55;;;;;;;-1.53;59.93;101220.86;1723523;81;21129;-62
2020/12/06 09:31:24;;;;;;;18.42;7.85;;;;;;;-1.57;59.47;101222.66;1726921;81;21224;-62
2020/12/06 09:33:51;;;;;;;18.35;8.55;;;;;;;-1.52;58.68;101217.67;1710944;83;21147;-62
2020/12/06 09:36:19;;;;;;;19.50;8.53;;;;;;;-1.54;57.96;101214.33;1726695;83;21125;-62
2020/12/06 09:38:46;;;;;;;19.55;9.43;;;;;;;-1.52;58.60;101221.19;1737768;81;21172;-62
2020/12/06 09:41:15;;;;;;;24.25;9.43;;;;;;;-1.46;59.12;101217.06;1733383;83;21216;-62
2020/12/06 09:43:45;;;;;;;19.35;8.28;;;;;;;-1.44;59.16;101214.21;1716638;81;21232;-61
2020/12/06 09:46:14;;;;;;;23.52;8.43;;;;;;;-1.41;58.49;101217.41;1709509;83;21181;-61
2020/12/06 09:48:42;;;;;;;16.60;8.10;;;;;;;-1.53;58.16;101210.18;1735047;82;21223;-62
2020/12/06 09:51:11;;;;;;;18.02;8.23;;;;;;;-1.49;58.65;101201.84;1729530;82;21165;-62
2020/12/06 09:53:38;;;;;;;14.40;7.58;;;;;;;-1.44;58.90;101212.38;1688599;83;21157;-62
2020/12/06 09:56:06;;;;;;;15.70;8.28;;;;;;;-1.43;58.89;101213.23;1729800;83;21145;-62
2020/12/06 09:58:33;;;;;;;14.78;7.15;;;;;;;-1.45;57.69;101201.35;1701857;82;21181;-62
2020/12/06 10:01:02;;;;;;;16.55;7.95;;;;;;;-1.49;58.30;101195.17;1700594;84;21323;-62
2020/12/06 10:03:30;;;;;;;16.85;8.35;;;;;;;-1.42;58.80;101196.21;1721463;83;21185;-61
2020/12/06 10:05:57;;;;;;;15.83;7.97;;;;;;;-1.45;58.17;101198.68;1700445;82;21168;-61
2020/12/06 10:08:26;;;;;;;17.90;8.65;;;;;;;-1.39;58.26;101199.89;1671435;86;21185;-62
2020/12/06 10:10:55;;;;;;;17.55;8.48;;;;;;;-1.38;58.53;101194.91;1671711;84;21317;-61
2020/12/06 10:13:22;;;;;;;20.25;10.00;;;;;;;-1.31;59.30;101205.29;1688071;84;21315;-61
2020/12/06 10:15:50;;;;;;;16.07;8.50;;;;;;;-1.30;58.31;101196.26;1709456;84;21316;-62
2020/12/06 10:18:17;;;;;;;16.60;7.83;;;;;;;-1.36;57.74;101192.41;1672191;84;21353;-62
2020/12/06 10:20:44;;;;;;;19.77;8.60;;;;;;;-1.45;57.31;101185.33;1745395;82;21185;-61
2020/12/06 10:23:12;;;;;;;22.22;10.68;;;;;;;-1.43;58.26;101187.36;1753910;82;21160;-62
2020/12/06 10:25:40;;;;;;;16.40;9.00;;;;;;;-1.41;58.50;101185.84;1752152;81;21327;-61
2020/12/06 10:28:08;;;;;;;16.40;8.05;;;;;;;-1.45;59.11;101176.50;1704743;83;21157;-62
2020/12/06 10:30:35;;;;;;;19.52;8.95;;;;;;;-1.36;58.45;101182.21;1687292;83;21224;-63
2020/12/06 10:33:03;;;;;;;18.37;8.23;;;;;;;-1.33;58.39;101168.53;1735302;82;21303;-62
2020/12/06 10:35:31;;;;;;;17.90;8.33;;;;;;;-1.28;58.09;101171.57;1752486;82;21113;-61
2020/12/06 10:37:58;;;;;;;16.15;7.95;;;;;;;-1.30;57.63;101169.54;1755081;81;21247;-62
2020/12/06 10:40:26;;;;;;;19.45;8.70;;;;;;;-1.36;57.93;101166.18;1755049;82;21834;-61
2020/12/06 10:42:53;;;;;;;17.02;8.08;;;;;;;-1.38;57.63;101166.33;1754948;82;21153;-62
2020/12/06 10:45:21;;;;;;;19.77;8.50;;;;;;;-1.38;57.51;101165.52;1754446;82;21579;-62
2020/12/06 10:47:49;;;;;;;20.20;10.50;;;;;;;-1.43;57.78;101159.80;1752251;82;21279;-62
2020/12/06 10:50:16;;;;;;;15.13;8.33;;;;;;;-1.45;58.11;101159.95;1751969;82;21193;-62
2020/12/06 10:52:44;;;;;;;13.68;7.47;;;;;;;-1.40;58.05;101159.48;1754469;82;21292;-62
2020/12/06 10:55:11;;;;;;;17.02;8.55;;;;;;;-1.38;57.81;101162.32;1750610;82;21194;-62
2020/12/06 10:57:38;;;;;;;18.82;9.93;;;;;;;-1.35;57.33;101158.52;1737394;82;21299;-62
2020/12/06 11:00:06;;;;;;;17.02;8.75;;;;;;;-1.35;57.67;101162.52;1725317;83;21329;-62
2020/12/06 11:02:33;;;;;;;19.65;9.83;;;;;;;-1.39;57.53;101164.67;1700619;82;21700;-62
2020/12/06 11:05:00;;;;;;;22.15;9.90;;;;;;;-1.33;57.13;101168.03;1742741;82;21177;-62
2020/12/06 11:07:29;;;;;;;22.15;9.53;;;;;;;-1.33;56.81;101166.70;1725358;83;21594;-62
2020/12/06 11:09:57;;;;;;;14.33;7.42;;;;;;;-1.31;57.29;101162.55;1692203;82;21293;-62
2020/12/06 11:12:24;;;;;;;15.78;7.80;;;;;;;-1.33;56.61;101161.36;1752170;82;21338;-63
2020/12/06 11:14:53;;;;;;;12.75;7.22;;;;;;;-1.38;56.88;101134.80;1750444;82;21173;-62
2020/12/06 11:17:20;;;;;;;18.15;8.08;;;;;;;-1.35;56.36;101154.51;1752435;82;21314;-62
2020/12/06 11:19:48;;;;;;;18.98;8.43;;;;;;;-1.35;56.54;101154.02;1752268;82;21182;-62
2020/12/06 11:22:15;;;;;;;18.37;9.60;;;;;;;-1.32;56.48;101155.52;1748688;82;21274;-62